Arlington, SD

9:11 PM CDT on July 26, 2016 (GMT -0500)
Arlington, SD | | Change Station

Elev 1808 ft 44.38 °N, 97.08 °W | Updated 7 seconds ago

Clear
Clear
72.6 °F
Feels Like 70 °F
N
0.0
Wind Variable Wind from South
Gusts 0.0 mph

Today
High -- | Low -- °F
--% Chance of Precip.
Yesterday
High -- | Low -- °F
Precip. -- in
Pressure 29.97 in
Visibility 10.0 miles
Clouds Clear
Heat Index 70 °F
Dew Point 70 °F
Humidity 90%
Rainfall 0.00 in
Snow Depth Not available.
6:09 AM 8:59 PM
Waning Gibbous, 48% visible
METAR KBKX 270156Z AUTO 13007KT 10SM CLR 24/22 A2996 RMK AO2 SLP149 T02390217
Pressure 29.97 in
Visibility 10.0 miles
Clouds Clear
Heat Index 70 °F
Dew Point 70 °F
Humidity 90%
Rainfall 0.00 in
Snow Depth Not available.
6:09 AM 8:59 PM
Waning Gibbous, 48% visible
METAR KBKX 270156Z AUTO 13007KT 10SM CLR 24/22 A2996 RMK AO2 SLP149 T02390217

10-Day Weather Forecast

Almanac

Astronomy

Jul. 26, 2016 Rise Set
Actual Time
Civil Twilight
Nautical Twilight
Astronomical Twilight
Moon
Length of Visible Light
Length of Day
Tomorrow will be .
, % of the Moon is Illuminated

Today's Extremes

State Highs State Lows

Community

WunderPhotos

Upload Photos

1,927,776 photos uploaded!

WunderBlog® & News

Nearby

Air Quality

  Air Quality AQ Index Pollutant
Not available.

Snow Depth

Station Depth Elevation

Earthquake Activity

City Distance Mag. Time & Date
Minimum magnitude displayed is 2.5.

Coastal Water Temperatures

Place Temperature

Stations

Nearby Weather Stations

Station Location Temp. Windchill Dew Point Humidity Wind Precip. Elev Updated Type
                   

Watches & Warnings

There are currently no watches in effect.